createdAt,value
2016-12-04T02:23:20.171Z,0
2016-12-04T02:41:36.840Z,0
2016-12-04T05:54:19.180Z,0
2016-12-04T05:58:20.524Z,0
2016-12-04T06:01:31.716Z,0
2016-12-04T06:22:52.219Z,0
2016-12-04T06:29:30.318Z,0
2016-12-04T06:30:02.673Z,0
2016-12-04T06:30:46.604Z,0
2016-12-04T06:31:10.419Z,0
2016-12-04T06:34:23.841Z,0
2016-12-04T06:36:58.560Z,0
2016-12-04T06:37:26.251Z,0
2016-12-04T06:39:11.827Z,0
2016-12-04T06:42:35.986Z,0
2016-12-04T06:46:59.870Z,0
2016-12-04T06:49:46.104Z,0
2016-12-04T06:50:11.358Z,0
2016-12-04T06:50:34.063Z,0
2016-12-04T06:50:55.795Z,0
2016-12-04T06:51:17.548Z,0
2016-12-04T06:51:44.036Z,0
2016-12-04T06:52:05.768Z,0
2016-12-04T06:52:32.261Z,0
2016-12-04T06:58:57.317Z,0
2016-12-04T07:01:47.397Z,0
2016-12-04T07:02:51.737Z,0
2016-12-04T07:03:22.034Z,0
2016-12-04T07:03:58.584Z,0
2016-12-04T07:04:21.319Z,0
2016-12-04T07:05:19.219Z,0
2016-12-04T07:05:46.717Z,0
2016-12-04T07:06:22.556Z,0
2016-12-04T07:06:53.823Z,0
2016-12-04T07:07:16.565Z,0
2016-12-04T07:08:56.481Z,0
2016-12-04T07:09:22.984Z,0
2016-12-04T07:09:44.716Z,0
2016-12-04T07:10:12.651Z,0
2016-12-04T07:10:38.960Z,0
2016-12-04T07:11:00.677Z,0
2016-12-04T07:11:29.744Z,0
2016-12-04T07:15:21.219Z,0
2016-12-04T07:16:55.510Z,0
2016-12-04T07:18:52.146Z,0
2016-12-04T07:21:09.632Z,0
2016-12-04T07:23:33.863Z,0
2016-12-04T07:23:55.584Z,0
2016-12-04T07:24:23.082Z,0
2016-12-04T07:24:45.806Z,0
2016-12-04T07:25:12.332Z,0
2016-12-04T07:25:38.863Z,0
2016-12-04T07:26:03.556Z,0
2016-12-04T07:26:25.284Z,0
2016-12-04T07:26:56.563Z,0
2016-12-04T07:27:18.300Z,0
2016-12-04T07:28:20.672Z,0
2016-12-04T07:28:47.166Z,0
2016-12-04T07:29:08.888Z,0
2016-12-04T07:29:30.628Z,0
2016-12-04T07:29:57.125Z,0
2016-12-04T07:30:18.870Z,0
2016-12-04T07:30:40.646Z,0
2016-12-04T07:31:02.378Z,0
2016-12-04T07:31:24.922Z,0
2016-12-04T07:31:56.018Z,0
2016-12-04T07:32:17.774Z,0
2016-12-04T07:32:49.072Z,0
2016-12-04T07:33:21.342Z,0
2016-12-04T07:33:47.834Z,0
2016-12-04T07:34:09.599Z,0
2016-12-04T07:34:31.333Z,0
2016-12-04T07:34:53.084Z,0
2016-12-04T07:35:46.355Z,0
2016-12-04T07:36:13.459Z,0
2016-12-04T07:37:13.744Z,0
2016-12-04T07:37:38.855Z,0
2016-12-04T07:38:01.800Z,0
2016-12-04T07:40:09.310Z,1
2016-12-04T07:40:31.036Z,1
2016-12-04T07:40:52.817Z,1
2016-12-04T07:41:14.564Z,1
2016-12-04T07:41:36.323Z,1
2016-12-04T07:43:42.543Z,1
2016-12-04T07:44:10.138Z,1
2016-12-04T07:44:41.496Z,1
2016-12-04T07:45:08.034Z,1
2016-12-04T07:45:29.770Z,1
2016-12-04T07:46:00.877Z,1
2016-12-04T07:46:27.368Z,1
2016-12-04T07:47:39.179Z,1
2016-12-04T07:48:46.290Z,1
2016-12-04T07:49:15.328Z,1
2016-12-04T07:49:46.435Z,1
2016-12-04T07:51:43.499Z,1
2016-12-04T07:53:58.389Z,1
2016-12-04T07:54:24.807Z,1
2016-12-04T07:56:07.086Z,1
2016-12-04T07:56:32.586Z,1
2016-12-04T07:56:59.122Z,1
2016-12-04T07:57:28.515Z,1
2016-12-04T07:58:26.280Z,1
2016-12-04T07:59:08.192Z,1
2016-12-04T07:59:54.742Z,1
2016-12-04T08:00:41.287Z,1
2016-12-04T08:01:17.832Z,1
2016-12-04T08:03:01.925Z,1
2016-12-04T08:04:06.877Z,1
2016-12-04T08:05:58.932Z,1
2016-12-04T08:06:43.469Z,1
2016-12-04T08:07:09.985Z,1
2016-12-04T08:07:32.723Z,1
2016-12-04T08:08:03.989Z,1
2016-12-04T08:08:30.489Z,1
2016-12-04T08:08:57.001Z,1
2016-12-04T08:09:18.740Z,1
2016-12-04T08:10:08.003Z,1
2016-12-04T08:10:36.512Z,1
2016-12-04T08:10:59.259Z,1
2016-12-04T08:11:20.991Z,1
2016-12-04T08:11:42.747Z,1
2016-12-04T08:13:30.323Z,1
2016-12-04T08:14:28.443Z,1
2016-12-04T08:14:55.930Z,1
2016-12-04T08:15:17.687Z,1
2016-12-04T08:15:44.104Z,1
2016-12-04T08:16:06.842Z,1
2016-12-04T08:16:28.567Z,1
2016-12-04T08:16:50.289Z,1
2016-12-04T08:17:14.828Z,2
2016-12-04T08:17:41.344Z,2
2016-12-04T08:18:07.850Z,2
2016-12-04T08:18:29.574Z,2
2016-12-04T08:19:17.825Z,2
2016-12-04T08:19:39.571Z,2
2016-12-04T08:20:01.317Z,2
2016-12-04T08:20:23.052Z,2
2016-12-04T08:20:45.765Z,2
2016-12-04T08:21:07.486Z,2
2016-12-04T08:21:30.211Z,2
2016-12-04T08:21:51.925Z,2
2016-12-04T08:22:13.678Z,2
2016-12-04T08:22:35.392Z,2
2016-12-04T08:22:57.132Z,2
2016-12-04T08:23:23.735Z,2
2016-12-04T08:23:45.460Z,2
2016-12-04T08:24:07.197Z,2
2016-12-04T08:24:28.921Z,2
2016-12-04T08:24:50.648Z,2
2016-12-04T08:25:17.134Z,2
2016-12-04T08:25:38.889Z,2
2016-12-04T08:28:24.026Z,2
2016-12-04T08:28:50.563Z,2
2016-12-04T08:30:14.038Z,2
2016-12-04T08:30:57.516Z,2
2016-12-04T08:33:21.068Z,2
2016-12-04T08:33:45.461Z,2
2016-12-04T08:34:08.211Z,2
2016-12-04T08:34:34.704Z,2
2016-12-04T08:35:51.928Z,2
2016-12-04T08:36:28.471Z,2
2016-12-04T08:36:59.584Z,2
2016-12-04T08:37:25.950Z,2
2016-12-04T08:37:48.661Z,2
2016-12-04T08:38:13.209Z,2
2016-12-04T08:38:47.283Z,2
2016-12-04T08:39:18.547Z,2
2016-12-04T08:39:40.273Z,2
2016-12-04T08:40:04.632Z,2
2016-12-04T08:40:27.368Z,2
2016-12-04T08:40:49.076Z,2
2016-12-04T08:41:10.826Z,2
2016-12-04T08:42:17.740Z,2
2016-12-04T08:42:39.603Z,2
2016-12-04T08:43:01.316Z,2
2016-12-04T08:43:24.076Z,2
2016-12-04T08:43:50.573Z,2
2016-12-04T08:44:12.304Z,2
2016-12-04T08:45:03.275Z,2
2016-12-04T08:45:29.770Z,2
2016-12-04T08:45:56.257Z,2
2016-12-04T08:46:22.747Z,2
2016-12-04T08:46:44.469Z,2
2016-12-04T08:48:41.695Z,2
2016-12-04T08:49:06.071Z,2
2016-12-04T08:49:32.584Z,2
2016-12-04T08:49:54.306Z,2
2016-12-04T08:50:16.038Z,2
2016-12-04T08:50:42.528Z,2
2016-12-04T08:51:04.272Z,2
2016-12-04T08:51:25.985Z,2
2016-12-04T08:51:47.716Z,2
2016-12-04T08:52:09.462Z,2
2016-12-04T08:52:35.957Z,2
2016-12-04T08:52:57.676Z,2
2016-12-04T08:53:19.437Z,2
2016-12-04T08:53:41.272Z,2
2016-12-04T08:54:03.009Z,2
2016-12-04T08:54:24.738Z,2
2016-12-04T08:54:46.477Z,2
2016-12-04T08:55:10.924Z,2
2016-12-04T08:56:09.510Z,2
2016-12-04T08:56:34.977Z,2
2016-12-04T08:57:01.836Z,2
2016-12-04T08:57:23.552Z,2
2016-12-04T08:58:15.449Z,2
2016-12-04T08:58:37.165Z,2
2016-12-04T08:58:58.890Z,2
2016-12-04T08:59:47.114Z,2
2016-12-04T09:00:18.373Z,2
2016-12-04T09:00:41.103Z,2
2016-12-04T09:01:02.827Z,2
2016-12-04T09:01:24.566Z,2
2016-12-04T09:01:51.056Z,2
2016-12-04T09:02:17.558Z,2
2016-12-04T09:02:48.634Z,2
2016-12-04T09:03:15.133Z,2
2016-12-04T09:03:47.393Z,2
2016-12-04T09:04:40.422Z,2
2016-12-04T09:05:05.957Z,2
2016-12-04T09:05:33.289Z,2
2016-12-04T09:05:55.022Z,2
2016-12-04T09:06:16.755Z,2
2016-12-04T09:06:43.074Z,2
2016-12-04T09:07:11.239Z,2
2016-12-04T09:07:42.668Z,2
2016-12-04T09:08:35.798Z,2
2016-12-04T09:09:06.874Z,2
2016-12-04T09:09:28.612Z,2
2016-12-04T09:09:50.361Z,2
2016-12-04T09:11:00.225Z,2
2016-12-04T09:11:31.374Z,2
2016-12-04T09:11:57.673Z,2
2016-12-04T09:12:52.688Z,3
2016-12-04T09:13:15.440Z,3
2016-12-04T09:14:11.496Z,3
2016-12-04T09:14:36.800Z,3
2016-12-04T09:15:08.664Z,3
2016-12-04T09:15:51.444Z,3
2016-12-04T09:17:46.825Z,3
2016-12-04T09:18:52.847Z,3
2016-12-04T09:24:42.002Z,3
2016-12-04T09:25:08.354Z,3
2016-12-04T09:25:32.875Z,3
2016-12-04T09:27:32.315Z,3
2016-12-04T09:28:09.059Z,3
2016-12-04T09:28:41.434Z,3
2016-12-04T09:29:43.785Z,3
2016-12-04T09:30:42.561Z,3
2016-12-04T09:32:21.069Z,3
2016-12-04T09:32:48.583Z,3
2016-12-04T09:33:11.309Z,3
2016-12-04T09:33:33.011Z,3
2016-12-04T09:33:54.745Z,3
2016-12-04T09:34:16.476Z,3
2016-12-04T09:34:38.292Z,3
2016-12-04T09:35:04.796Z,3
2016-12-04T09:35:26.559Z,3
2016-12-04T09:35:50.268Z,3
2016-12-04T09:36:11.980Z,3
2016-12-04T09:36:36.463Z,3
2016-12-04T09:36:58.179Z,3
2016-12-04T09:37:19.906Z,3
2016-12-04T09:37:41.624Z,3
2016-12-04T09:38:03.353Z,3
2016-12-04T09:38:26.083Z,4
2016-12-04T09:38:47.800Z,4
2016-12-04T09:39:09.535Z,4
2016-12-04T09:39:31.262Z,4
2016-12-04T09:39:53.039Z,4
2016-12-04T09:40:15.804Z,4
2016-12-04T09:40:37.620Z,4
2016-12-04T09:41:02.163Z,4
2016-12-04T09:41:23.915Z,4
2016-12-04T09:42:13.144Z,4
2016-12-04T09:42:34.930Z,4
2016-12-04T09:42:56.664Z,4
2016-12-04T09:43:19.465Z,4
2016-12-04T09:45:00.209Z,4
2016-12-04T09:45:29.584Z,4
2016-12-04T09:46:02.701Z,4
2016-12-04T09:46:31.845Z,4
2016-12-04T09:48:00.064Z,4
2016-12-04T09:48:26.636Z,4
2016-12-04T09:48:48.415Z,4
2016-12-04T09:49:17.701Z,4
2016-12-04T09:49:46.272Z,4
2016-12-04T09:50:10.919Z,4
2016-12-04T09:50:32.651Z,4
2016-12-04T09:50:59.157Z,4
2016-12-04T09:51:25.675Z,4
2016-12-04T09:52:19.643Z,4
2016-12-04T09:53:15.933Z,4
2016-12-04T09:54:02.456Z,4
2016-12-04T09:54:28.943Z,4
2016-12-04T09:54:55.432Z,4
2016-12-04T09:55:19.798Z,4
2016-12-04T09:56:11.956Z,4
2016-12-04T09:56:36.841Z,4
2016-12-04T09:56:58.885Z,4
2016-12-04T09:57:50.002Z,4
2016-12-04T09:58:12.694Z,4
2016-12-04T09:58:34.477Z,4
2016-12-04T09:58:56.214Z,4
2016-12-04T09:59:17.943Z,4
2016-12-04T09:59:39.652Z,4
2016-12-04T10:00:01.420Z,4
2016-12-04T10:00:23.192Z,4
2016-12-04T10:00:45.920Z,4
2016-12-04T10:01:07.652Z,4
2016-12-04T10:01:29.384Z,4
2016-12-04T10:01:51.128Z,4
2016-12-04T10:02:12.854Z,4
2016-12-04T10:02:34.589Z,4
2016-12-04T10:02:56.309Z,4
2016-12-04T10:03:18.042Z,4
2016-12-04T10:03:39.765Z,4
2016-12-04T10:04:32.735Z,4
2016-12-04T10:05:26.399Z,4
2016-12-04T10:05:48.113Z,4
2016-12-04T10:06:14.613Z,4
2016-12-04T10:08:16.678Z,4
2016-12-04T10:09:15.442Z,4
2016-12-04T10:09:37.183Z,4
2016-12-04T10:09:58.897Z,4
2016-12-04T10:10:20.642Z,4
2016-12-04T10:10:42.360Z,4
2016-12-04T10:11:04.190Z,4
2016-12-04T10:12:06.846Z,5
2016-12-04T10:12:28.581Z,5
2016-12-04T10:12:54.908Z,5
2016-12-04T10:14:42.996Z,5
2016-12-04T10:15:09.488Z,5
2016-12-04T10:15:31.242Z,5
2016-12-04T10:15:52.966Z,5
2016-12-04T10:16:14.693Z,5
2016-12-04T10:16:36.411Z,5
2016-12-04T10:16:58.204Z,5
2016-12-04T10:17:56.490Z,5
2016-12-04T10:18:23.986Z,5
2016-12-04T10:18:45.709Z,5
2016-12-04T10:19:12.201Z,5
2016-12-04T10:19:33.941Z,5
2016-12-04T10:19:55.664Z,5
2016-12-04T10:20:18.404Z,5
2016-12-04T10:20:40.155Z,5
2016-12-04T10:21:01.890Z,5
2016-12-04T10:21:23.615Z,5
2016-12-04T10:21:45.345Z,5
2016-12-04T10:22:07.080Z,5
2016-12-04T10:22:28.805Z,5
2016-12-04T10:22:51.532Z,5
2016-12-04T10:23:13.267Z,5
2016-12-04T10:23:35.120Z,5
2016-12-04T10:23:56.844Z,5
2016-12-04T10:24:18.574Z,5
2016-12-04T10:24:40.297Z,5
2016-12-04T10:25:02.027Z,5
2016-12-04T10:25:23.756Z,5
2016-12-04T10:25:45.497Z,5
2016-12-04T10:26:07.217Z,5
2016-12-04T10:26:29.939Z,6
2016-12-04T10:26:51.659Z,6
2016-12-04T10:27:13.408Z,6
2016-12-04T10:27:35.128Z,6
2016-12-04T10:27:56.975Z,6
2016-12-04T10:28:18.698Z,6
2016-12-04T10:28:40.431Z,6
2016-12-04T10:29:02.157Z,6
2016-12-04T10:29:23.897Z,6
2016-12-04T10:29:45.611Z,6
2016-12-04T10:30:07.346Z,6
2016-12-04T10:30:29.146Z,6
2016-12-04T10:30:50.873Z,6
2016-12-04T10:31:12.600Z,6
2016-12-04T10:31:34.325Z,6
2016-12-04T10:32:28.306Z,6
2016-12-04T10:32:50.047Z,6
2016-12-04T10:33:16.533Z,6
2016-12-04T10:33:38.282Z,6
2016-12-04T10:34:00.031Z,6
2016-12-04T10:34:21.756Z,6
2016-12-04T10:34:44.477Z,6
2016-12-04T10:35:06.216Z,6
2016-12-04T10:36:00.208Z,7
2016-12-04T10:36:21.934Z,7
2016-12-04T10:36:43.674Z,7
2016-12-04T10:37:05.401Z,7
2016-12-04T10:37:27.133Z,7
2016-12-04T10:37:48.870Z,7
2016-12-04T10:38:38.942Z,7
2016-12-04T10:39:00.686Z,7
2016-12-04T10:39:27.198Z,7
2016-12-04T10:39:54.698Z,7
2016-12-04T10:40:16.478Z,7
2016-12-04T10:40:38.241Z,7
2016-12-04T10:40:59.970Z,7
2016-12-04T10:42:09.032Z,8
2016-12-04T10:42:30.757Z,8
2016-12-04T10:43:19.835Z,8
2016-12-04T10:43:41.665Z,8
2016-12-04T10:44:04.387Z,8
2016-12-04T10:44:26.191Z,9
2016-12-04T10:44:50.931Z,9
2016-12-04T10:45:12.672Z,9
2016-12-04T10:45:43.088Z,9
2016-12-04T10:46:08.842Z,10
2016-12-04T10:46:36.323Z,10
2016-12-04T10:46:58.064Z,10
2016-12-04T10:47:20.787Z,10
2016-12-04T10:47:43.540Z,10
2016-12-04T10:48:05.282Z,10
2016-12-04T10:48:31.796Z,10
2016-12-04T10:48:53.520Z,10
2016-12-04T10:49:15.254Z,11
2016-12-04T10:49:37.001Z,11
2016-12-04T10:49:58.755Z,11
2016-12-04T10:50:25.252Z,12
2016-12-04T10:50:48.984Z,12
2016-12-04T10:51:10.710Z,12
2016-12-04T10:51:32.454Z,12
2016-12-04T10:51:54.217Z,13
2016-12-04T10:52:15.954Z,13
2016-12-04T10:52:38.705Z,13
2016-12-04T10:53:00.419Z,13
2016-12-04T10:53:23.148Z,13
2016-12-04T10:53:47.535Z,13
2016-12-04T10:54:09.411Z,14
2016-12-04T10:54:31.139Z,14
2016-12-04T10:54:52.855Z,14
2016-12-04T10:55:14.576Z,14
2016-12-04T10:55:36.292Z,14
2016-12-04T10:55:58.031Z,14
2016-12-04T10:56:19.766Z,14
2016-12-04T10:56:41.506Z,14
2016-12-04T10:57:03.237Z,14
2016-12-04T10:57:24.981Z,14
2016-12-04T10:57:46.688Z,14
2016-12-04T10:58:13.197Z,14
2016-12-04T10:58:34.907Z,14
2016-12-04T10:58:56.650Z,14
2016-12-04T10:59:18.365Z,14
2016-12-04T10:59:40.104Z,14
2016-12-04T11:00:01.952Z,14
2016-12-04T11:00:23.674Z,14
2016-12-04T11:00:45.391Z,14
2016-12-04T11:01:07.137Z,14
2016-12-04T11:01:28.875Z,14
2016-12-04T11:01:50.623Z,14
2016-12-04T11:02:12.365Z,14
2016-12-04T11:02:34.116Z,14
2016-12-04T11:02:56.860Z,14
2016-12-04T11:03:18.581Z,15
2016-12-04T11:03:40.299Z,15
2016-12-04T11:04:02.051Z,15
2016-12-04T11:04:23.811Z,15
2016-12-04T11:04:51.348Z,15
2016-12-04T11:05:13.076Z,15
2016-12-04T11:05:37.401Z,16
2016-12-04T11:05:59.130Z,16
2016-12-04T11:06:20.864Z,16
2016-12-04T11:06:42.583Z,16
2016-12-04T11:07:05.397Z,16
2016-12-04T11:07:27.116Z,17
2016-12-04T11:07:48.825Z,16
2016-12-04T11:08:10.539Z,16
2016-12-04T11:08:37.061Z,16
2016-12-04T11:08:58.794Z,16
2016-12-04T11:09:20.530Z,16
2016-12-04T11:09:52.845Z,16
2016-12-04T11:10:19.383Z,16
2016-12-04T11:10:41.126Z,16
2016-12-04T11:11:02.836Z,16
2016-12-04T11:11:24.549Z,16
2016-12-04T11:11:46.309Z,16
2016-12-04T11:12:08.055Z,17
2016-12-04T11:12:56.271Z,17
2016-12-04T11:13:18.004Z,16
2016-12-04T11:13:39.726Z,17
2016-12-04T11:14:01.445Z,17
2016-12-04T11:14:23.190Z,17
2016-12-04T11:14:45.916Z,17
2016-12-04T11:15:07.643Z,17
2016-12-04T11:15:29.396Z,17
2016-12-04T11:15:51.112Z,16
2016-12-04T11:16:12.826Z,17
2016-12-04T11:16:34.549Z,17
2016-12-04T11:16:56.277Z,16
2016-12-04T11:17:18.012Z,16
2016-12-04T11:17:39.744Z,16
2016-12-04T11:18:01.464Z,16
2016-12-04T11:18:23.177Z,16
2016-12-04T11:18:44.905Z,16
2016-12-04T11:19:06.639Z,16
2016-12-04T11:19:28.380Z,16
2016-12-04T11:19:50.292Z,16
2016-12-04T11:20:16.777Z,16
2016-12-04T11:20:39.483Z,16
2016-12-04T11:21:01.199Z,16
2016-12-04T11:21:22.909Z,16
2016-12-04T11:21:44.647Z,16
2016-12-04T11:22:06.393Z,16
2016-12-04T11:22:32.901Z,16
2016-12-04T11:22:54.630Z,16
2016-12-04T11:23:16.347Z,16
2016-12-04T11:23:38.073Z,15
2016-12-04T11:23:59.793Z,15
2016-12-04T11:24:21.513Z,15
2016-12-04T11:24:46.106Z,15
2016-12-04T11:25:07.809Z,15
2016-12-04T11:25:29.530Z,15
2016-12-04T11:25:51.253Z,14
2016-12-04T11:26:39.476Z,14
2016-12-04T11:27:01.191Z,14
2016-12-04T11:27:22.921Z,14
2016-12-04T11:27:44.641Z,14
2016-12-04T11:28:06.366Z,14
2016-12-04T11:28:54.579Z,14
2016-12-04T11:29:16.404Z,14
2016-12-04T11:29:38.309Z,14
2016-12-04T11:30:00.022Z,14
2016-12-04T11:30:21.739Z,14
2016-12-04T11:30:44.459Z,14
2016-12-04T11:31:06.240Z,14
2016-12-04T11:31:28.965Z,14
2016-12-04T11:31:50.704Z,14
2016-12-04T11:32:12.422Z,14
2016-12-04T11:32:34.133Z,14
2016-12-04T11:32:55.854Z,14
2016-12-04T11:33:17.595Z,13
2016-12-04T11:33:39.313Z,13
2016-12-04T11:34:27.553Z,13
2016-12-04T11:34:50.275Z,13
2016-12-04T11:35:11.993Z,12
2016-12-04T11:36:00.031Z,12
2016-12-04T11:36:25.448Z,12
2016-12-04T11:36:48.159Z,12
2016-12-04T11:37:09.910Z,12
2016-12-04T11:37:31.638Z,11
2016-12-04T11:37:53.387Z,11
2016-12-04T11:38:15.110Z,11
2016-12-04T11:39:21.060Z,11
2016-12-04T11:39:47.642Z,11
2016-12-04T11:40:12.022Z,11
2016-12-04T11:40:38.517Z,11
2016-12-04T11:41:00.289Z,11
2016-12-04T11:42:47.151Z,12
2016-12-04T11:44:34.737Z,12
2016-12-04T11:45:05.996Z,12
2016-12-04T11:46:38.169Z,12
2016-12-04T11:47:05.689Z,13
2016-12-04T11:48:08.430Z,13
2016-12-04T11:50:22.213Z,14
2016-12-04T11:50:53.322Z,15
2016-12-04T11:52:58.010Z,15
2016-12-04T11:53:19.747Z,15
2016-12-04T11:54:45.008Z,16
2016-12-04T11:55:09.348Z,16
2016-12-04T11:55:36.832Z,16
2016-12-04T11:56:28.995Z,16
2016-12-04T11:56:58.219Z,17
2016-12-04T11:58:29.835Z,17
2016-12-04T11:58:57.337Z,17
2016-12-04T11:59:28.600Z,17
2016-12-04T11:59:56.102Z,17
2016-12-04T12:00:17.849Z,17
2016-12-04T12:01:11.336Z,17
2016-12-04T12:02:32.834Z,18
2016-12-04T12:02:59.649Z,18
2016-12-04T12:03:21.392Z,18
2016-12-04T12:03:43.139Z,18
2016-12-04T12:04:09.666Z,18
2016-12-04T12:04:36.145Z,18
2016-12-04T12:04:57.873Z,18
2016-12-04T12:05:19.708Z,18
2016-12-04T12:05:46.358Z,18
2016-12-04T12:06:09.277Z,18
2016-12-04T12:06:35.790Z,18
2016-12-04T12:06:57.524Z,18
2016-12-04T12:07:19.252Z,18
2016-12-04T12:08:17.020Z,18
2016-12-04T12:08:38.759Z,18
2016-12-04T12:09:02.481Z,18
2016-12-04T12:09:24.245Z,18
2016-12-04T12:09:46.971Z,18
2016-12-04T12:10:09.699Z,18
2016-12-04T12:10:32.435Z,18
2016-12-04T12:10:54.166Z,18
2016-12-04T12:11:51.935Z,18
2016-12-04T12:12:13.665Z,18
2016-12-04T12:12:35.394Z,18
2016-12-04T12:12:57.137Z,18
2016-12-04T12:13:18.880Z,18
2016-12-04T12:13:41.604Z,18
2016-12-04T12:14:08.146Z,18
2016-12-04T12:14:29.867Z,18
2016-12-04T12:14:51.606Z,18
2016-12-04T12:15:13.344Z,18
2016-12-04T12:15:36.104Z,18
2016-12-04T12:15:57.864Z,18
2016-12-04T12:16:19.578Z,18
2016-12-04T12:16:41.303Z,18
2016-12-04T12:17:03.021Z,18
2016-12-04T12:17:24.778Z,18
2016-12-04T12:17:46.502Z,18
2016-12-04T12:18:08.291Z,18
2016-12-04T12:19:06.176Z,18
2016-12-04T12:19:32.664Z,18
2016-12-04T12:19:54.382Z,18
2016-12-04T12:20:42.593Z,18
2016-12-04T12:21:06.815Z,18
2016-12-04T12:21:28.545Z,18
2016-12-04T12:21:51.268Z,18
2016-12-04T12:22:13.002Z,18
2016-12-04T12:22:34.747Z,18
2016-12-04T12:22:56.477Z,18
2016-12-04T12:23:18.219Z,19
2016-12-04T12:23:39.970Z,19
2016-12-04T12:24:01.700Z,19
2016-12-04T12:24:23.428Z,19
2016-12-04T12:24:45.154Z,19
2016-12-04T12:25:08.875Z,19
2016-12-04T12:26:02.886Z,19
2016-12-04T12:26:24.615Z,19
2016-12-04T12:26:51.107Z,19
2016-12-04T12:27:12.857Z,19
2016-12-04T12:27:34.572Z,19
2016-12-04T12:27:56.301Z,19
2016-12-04T12:28:20.617Z,19
2016-12-04T12:29:08.857Z,19
2016-12-04T12:29:30.577Z,19
2016-12-04T12:29:53.312Z,19
2016-12-04T12:30:15.069Z,19
2016-12-04T12:30:36.798Z,19
2016-12-04T12:30:58.529Z,19
2016-12-04T12:31:20.274Z,19
2016-12-04T12:31:42.004Z,19
2016-12-04T12:32:03.718Z,19
2016-12-04T12:32:30.217Z,19
2016-12-04T12:32:51.956Z,19
2016-12-04T12:33:13.686Z,19
2016-12-04T12:33:35.418Z,19
2016-12-04T12:33:57.132Z,19
2016-12-04T12:34:19.849Z,19
2016-12-04T12:34:41.595Z,19
2016-12-04T12:35:03.349Z,19
2016-12-04T12:35:25.079Z,19
2016-12-04T12:35:46.809Z,20
2016-12-04T12:36:08.537Z,19
2016-12-04T12:36:35.053Z,19
2016-12-04T12:36:56.782Z,19
2016-12-04T12:37:19.516Z,18
2016-12-04T12:37:45.999Z,18
2016-12-04T12:38:12.490Z,18
2016-12-04T12:38:34.216Z,18
2016-12-04T12:40:26.608Z,16
2016-12-04T12:40:53.101Z,15
2016-12-04T12:41:20.340Z,13
2016-12-04T12:41:44.670Z,11
2016-12-04T12:42:11.193Z,10
2016-12-04T12:42:32.929Z,9
2016-12-04T12:42:54.651Z,8
2016-12-04T12:43:16.480Z,7
2016-12-04T12:43:38.217Z,7
2016-12-04T12:44:02.604Z,7
2016-12-04T12:44:31.768Z,8
2016-12-04T12:45:22.817Z,10
2016-12-04T12:45:44.523Z,11
2016-12-04T12:46:10.843Z,11
2016-12-04T12:46:32.570Z,12
2016-12-04T12:46:55.284Z,12
2016-12-04T12:47:17.003Z,12
2016-12-04T12:47:43.500Z,13
2016-12-04T12:48:32.723Z,12
2016-12-04T12:49:25.702Z,12
2016-12-04T12:49:50.506Z,12
2016-12-04T12:50:12.242Z,12
2016-12-04T12:50:43.510Z,11
2016-12-04T12:51:09.995Z,11
2016-12-04T12:51:34.359Z,11
2016-12-04T12:51:56.095Z,11
2016-12-04T12:52:17.829Z,11
2016-12-04T12:52:49.089Z,12
2016-12-04T12:53:10.830Z,13
2016-12-04T12:53:37.331Z,14
2016-12-04T12:54:33.099Z,15
2016-12-04T12:55:04.360Z,16
2016-12-04T12:55:26.085Z,16
2016-12-04T12:55:49.811Z,17
2016-12-04T12:56:16.306Z,17
2016-12-04T12:56:42.795Z,18
2016-12-04T12:57:04.521Z,19
2016-12-04T12:58:05.750Z,19
2016-12-04T12:58:32.291Z,19
2016-12-04T12:58:59.804Z,19
2016-12-04T12:59:21.528Z,19
2016-12-04T13:00:14.361Z,17
2016-12-04T13:00:40.860Z,16
2016-12-04T13:01:07.353Z,16
2016-12-04T13:01:34.857Z,16
2016-12-04T13:01:59.441Z,17
2016-12-04T13:02:52.447Z,17
2016-12-04T13:03:14.213Z,16
2016-12-04T13:03:35.957Z,15
2016-12-04T13:04:31.483Z,10
2016-12-04T13:06:01.496Z,11
2016-12-04T13:06:24.264Z,22
2016-12-04T13:09:00.298Z,37
2016-12-04T13:09:24.147Z,42
2016-12-04T13:10:20.125Z,30
2016-12-04T13:10:41.846Z,19
2016-12-04T13:11:03.577Z,13
2016-12-04T13:11:57.589Z,10
2016-12-04T13:12:25.070Z,9
2016-12-04T13:13:18.022Z,8
2016-12-04T13:13:44.542Z,8
2016-12-04T13:14:42.119Z,46
2016-12-04T13:15:08.612Z,87
2016-12-04T13:15:35.115Z,123
2016-12-04T13:15:58.858Z,141
2016-12-04T13:16:51.893Z,134
2016-12-04T13:17:40.904Z,122
2016-12-04T13:18:39.480Z,103
2016-12-04T13:19:39.256Z,53
2016-12-04T13:20:00.982Z,43
2016-12-04T13:20:26.657Z,31
2016-12-04T13:20:53.149Z,21
2016-12-04T13:21:22.418Z,21
2016-12-04T13:21:44.140Z,26
2016-12-04T13:22:06.867Z,33
2016-12-04T13:23:30.307Z,84
2016-12-04T13:23:52.063Z,97
2016-12-04T13:24:16.384Z,106
2016-12-04T13:25:09.370Z,130
2016-12-04T13:25:31.101Z,141
2016-12-04T13:25:52.906Z,149
2016-12-04T13:26:14.621Z,149
2016-12-04T13:26:36.352Z,150
2016-12-04T13:26:59.191Z,152
2016-12-04T13:27:56.943Z,162
2016-12-04T13:28:18.673Z,168
2016-12-04T13:28:45.180Z,158
2016-12-04T13:29:16.439Z,128
2016-12-04T13:30:14.220Z,61
2016-12-04T13:30:40.715Z,55
2016-12-04T13:31:02.428Z,80
2016-12-04T13:31:55.429Z,160
2016-12-04T13:32:17.168Z,188
2016-12-04T13:32:43.711Z,204
2016-12-04T13:33:06.527Z,192
2016-12-04T13:34:02.961Z,150
2016-12-04T13:34:29.558Z,118
2016-12-04T13:34:57.113Z,84
2016-12-04T13:35:23.615Z,54
2016-12-04T13:35:57.456Z,26
2016-12-04T13:36:19.178Z,16
2016-12-04T13:36:40.974Z,13
2016-12-04T13:39:38.889Z,10
2016-12-04T13:40:05.385Z,9
2016-12-04T13:40:27.160Z,9
2016-12-04T13:40:49.898Z,9
2016-12-04T13:41:16.393Z,8
2016-12-04T13:42:17.026Z,8
2016-12-04T13:42:39.778Z,7
2016-12-04T13:43:01.519Z,7
2016-12-04T13:43:28.008Z,7
2016-12-04T13:43:49.743Z,7
2016-12-04T13:44:11.499Z,7
2016-12-04T13:44:33.236Z,7
2016-12-04T13:44:55.095Z,7
2016-12-04T13:45:16.848Z,6
2016-12-04T13:45:38.630Z,6
2016-12-04T13:46:00.411Z,6
2016-12-04T13:46:22.133Z,6
2016-12-04T13:46:44.848Z,6
2016-12-04T13:47:09.341Z,6
2016-12-04T13:47:31.075Z,6
2016-12-04T13:47:56.493Z,5
2016-12-04T13:48:18.275Z,5
2016-12-04T13:48:39.974Z,5
2016-12-04T13:49:02.698Z,5
2016-12-04T13:49:24.411Z,5
2016-12-04T13:49:46.128Z,5
2016-12-04T13:50:07.849Z,5
2016-12-04T13:50:30.579Z,5
2016-12-04T13:50:52.336Z,5
2016-12-04T13:51:14.057Z,5
2016-12-04T13:51:35.780Z,5
2016-12-04T13:51:57.500Z,5
2016-12-04T13:52:19.248Z,5
2016-12-04T13:52:41.125Z,5
2016-12-04T13:53:04.929Z,5
2016-12-04T13:53:27.646Z,5
2016-12-04T13:53:49.387Z,5
2016-12-04T13:54:11.116Z,5
2016-12-04T13:54:38.609Z,5
2016-12-04T13:55:01.364Z,5
2016-12-04T13:55:23.101Z,4
2016-12-04T13:55:46.898Z,4
2016-12-04T13:56:08.621Z,4
2016-12-04T13:56:30.390Z,4
2016-12-04T13:56:52.120Z,4
2016-12-04T13:57:13.838Z,4
2016-12-04T13:57:36.558Z,4
2016-12-04T13:57:58.297Z,4
2016-12-04T13:58:20.155Z,4
2016-12-04T13:58:41.871Z,4
2016-12-04T13:59:03.586Z,4
2016-12-04T13:59:25.318Z,4
2016-12-04T13:59:51.832Z,4
2016-12-04T14:00:13.625Z,4
2016-12-04T14:00:40.213Z,4
2016-12-04T14:01:01.973Z,4
2016-12-04T14:01:23.744Z,4
2016-12-04T14:01:45.496Z,4
2016-12-04T14:02:27.036Z,4
2016-12-04T14:03:24.733Z,4
2016-12-04T14:03:51.244Z,4
2016-12-04T14:04:13.058Z,4
2016-12-04T14:05:01.310Z,5
2016-12-04T14:05:23.034Z,5
2016-12-04T14:05:47.553Z,5
2016-12-04T14:06:09.287Z,5
2016-12-04T14:06:31.097Z,5
2016-12-04T14:06:52.826Z,5
2016-12-04T14:07:14.572Z,5
2016-12-04T14:07:36.410Z,5
2016-12-04T14:07:58.143Z,5
2016-12-04T14:08:19.871Z,5
2016-12-04T14:08:41.615Z,5
2016-12-04T14:09:03.348Z,5
2016-12-04T14:09:25.089Z,5
2016-12-04T14:09:46.878Z,5
2016-12-04T14:10:09.601Z,5
2016-12-04T14:10:31.358Z,6
2016-12-04T14:10:53.093Z,6
2016-12-04T14:11:14.838Z,5
2016-12-04T14:11:36.563Z,5
2016-12-04T14:11:59.450Z,6
2016-12-04T14:12:21.329Z,6
2016-12-04T14:12:43.050Z,8
2016-12-04T14:13:04.774Z,8
2016-12-04T14:13:26.492Z,10
2016-12-04T14:13:48.211Z,12
2016-12-04T14:14:09.944Z,13
2016-12-04T14:14:32.718Z,15
2016-12-04T14:14:54.430Z,17
2016-12-04T14:15:20.926Z,19
2016-12-04T14:15:42.650Z,21
2016-12-04T14:16:05.382Z,23
2016-12-04T14:16:27.105Z,25
2016-12-04T14:16:48.833Z,26
2016-12-04T14:17:10.568Z,27
2016-12-04T14:17:32.285Z,28
2016-12-04T14:17:54.023Z,29
2016-12-04T14:18:45.394Z,27
2016-12-04T14:19:07.145Z,26
2016-12-04T14:19:29.878Z,25
2016-12-04T14:19:51.603Z,24
2016-12-04T14:20:13.344Z,24
2016-12-04T14:20:39.834Z,24
2016-12-04T14:21:01.573Z,25
2016-12-04T14:21:23.294Z,25
2016-12-04T14:21:46.028Z,24
2016-12-04T14:22:07.764Z,24
2016-12-04T14:22:29.565Z,24
2016-12-04T14:22:51.296Z,23
2016-12-04T14:23:13.023Z,21
2016-12-04T14:23:34.752Z,19
2016-12-04T14:23:56.501Z,17
2016-12-04T14:24:18.263Z,14
2016-12-04T14:24:40.138Z,12
2016-12-04T14:25:01.898Z,11